Hauptseite
METAR-TAF:

METAR-TAF

Flughäfen :

Flughafen El Golea

El Golea, Algerien

Breite: 30-34N, Länge: 002-52E, Höhe: 397 m

Beobachtung

Neuester Wetterbericht von vor 1 Stunde und 56 Minuten, um 00:00 UTC
Windstille
Temperatur 33°C
Luftfeuchtigkeit 26%
Luftdruck 1015 hPa
Sichtweite 10 km oder mehr
Leicht bewölkt in der Höhe von 4000 ft

METAR: DAUE 170000Z 00000KT 9999 FEW040 33/11 Q1015

Zeit: 02:56 (01:56 UTC)


TAF: fehlend

Wetterbeobachtungen und Prognosen von mehr als 4000 Flughäfen (METAR und TAF Bericht).

Die verfügbaren Stationen werden durch gelbe und rote Markierungen auf der Karte dargestellt.

Führen Sie die Maus auf sie, um den Namen der Station zu sehen.

Darauf klicken, um die Beobachtung von Wetterbeobachtungen und Prognosen zu sehen.

Um die Karte zu ändern : klicken Sie auf den grünen Tasten mit einem schwarzen Kreuz Zum Vergrößern, auf den grünen Button mit einem Gedankenstrich zu verkleinern, oder auf die grünen Pfeile für benachbarte Karten.


METAR-TAF: